sensor_id;sensor_type;location;lat;lon;timestamp;temperature;humidity
3055;DHT22;1537;52.018;8.542;2023-04-24T00:02:51;11.40;99.90
3055;DHT22;1537;52.018;8.542;2023-04-24T00:06:21;11.40;99.90
3055;DHT22;1537;52.018;8.542;2023-04-24T00:09:46;11.40;99.90
3055;DHT22;1537;52.018;8.542;2023-04-24T00:13:11;11.30;99.90
3055;DHT22;1537;52.018;8.542;2023-04-24T00:16:34;11.30;99.90
3055;DHT22;1537;52.018;8.542;2023-04-24T00:20:00;11.30;99.90
3055;DHT22;1537;52.018;8.542;2023-04-24T00:23:27;11.30;99.90
3055;DHT22;1537;52.018;8.542;2023-04-24T00:26:51;11.30;99.90
3055;DHT22;1537;52.018;8.542;2023-04-24T00:30:16;11.20;99.90
3055;DHT22;1537;52.018;8.542;2023-04-24T00:33:40;11.20;99.90
3055;DHT22;1537;52.018;8.542;2023-04-24T00:37:06;11.20;99.90
3055;DHT22;1537;52.018;8.542;2023-04-24T00:40:30;11.20;99.90
3055;DHT22;1537;52.018;8.542;2023-04-24T00:43:54;11.10;99.90
3055;DHT22;1537;52.018;8.542;2023-04-24T00:47:22;11.10;99.90
3055;DHT22;1537;52.018;8.542;2023-04-24T00:50:46;11.10;99.90
3055;DHT22;1537;52.018;8.542;2023-04-24T00:54:13;11.10;99.90
3055;DHT22;1537;52.018;8.542;2023-04-24T00:57:37;11.20;99.90
3055;DHT22;1537;52.018;8.542;2023-04-24T01:01:01;11.20;99.90
3055;DHT22;1537;52.018;8.542;2023-04-24T01:04:30;11.20;99.90
3055;DHT22;1537;52.018;8.542;2023-04-24T01:07:55;11.20;99.90
3055;DHT22;1537;52.018;8.542;2023-04-24T01:11:22;11.20;99.90
3055;DHT22;1537;52.018;8.542;2023-04-24T01:14:47;11.20;99.90
3055;DHT22;1537;52.018;8.542;2023-04-24T01:18:11;11.20;99.90
3055;DHT22;1537;52.018;8.542;2023-04-24T01:21:36;11.20;99.90
3055;DHT22;1537;52.018;8.542;2023-04-24T01:25:02;11.20;99.90
3055;DHT22;1537;52.018;8.542;2023-04-24T01:28:27;11.20;99.90
3055;DHT22;1537;52.018;8.542;2023-04-24T01:31:52;11.20;99.90
3055;DHT22;1537;52.018;8.542;2023-04-24T01:35:16;11.20;99.90
3055;DHT22;1537;52.018;8.542;2023-04-24T01:38:40;11.20;99.90
3055;DHT22;1537;52.018;8.542;2023-04-24T01:42:05;11.10;99.90
3055;DHT22;1537;52.018;8.542;2023-04-24T01:45:33;11.10;99.90
3055;DHT22;1537;52.018;8.542;2023-04-24T01:49:00;11.00;99.90
3055;DHT22;1537;52.018;8.542;2023-04-24T01:52:24;10.90;99.90
3055;DHT22;1537;52.018;8.542;2023-04-24T01:55:49;10.70;99.90
3055;DHT22;1537;52.018;8.542;2023-04-24T01:59:15;10.80;99.90
3055;DHT22;1537;52.018;8.542;2023-04-24T02:02:41;10.60;99.90
3055;DHT22;1537;52.018;8.542;2023-04-24T02:06:10;10.60;99.90
3055;DHT22;1537;52.018;8.542;2023-04-24T02:09:35;10.60;99.90
3055;DHT22;1537;52.018;8.542;2023-04-24T02:12:59;10.50;99.90
3055;DHT22;1537;52.018;8.542;2023-04-24T02:16:24;10.60;99.90
3055;DHT22;1537;52.018;8.542;2023-04-24T02:19:49;10.50;99.90
3055;DHT22;1537;52.018;8.542;2023-04-24T02:23:13;10.50;99.90
3055;DHT22;1537;52.018;8.542;2023-04-24T02:26:37;10.50;99.90
3055;DHT22;1537;52.018;8.542;2023-04-24T02:30:01;10.40;99.90
3055;DHT22;1537;52.018;8.542;2023-04-24T02:33:28;10.30;99.90
3055;DHT22;1537;52.018;8.542;2023-04-24T02:36:53;10.40;99.90
3055;DHT22;1537;52.018;8.542;2023-04-24T02:40:18;10.30;99.90
3055;DHT22;1537;52.018;8.542;2023-04-24T02:43:43;10.30;99.90
3055;DHT22;1537;52.018;8.542;2023-04-24T02:47:07;10.30;99.90
3055;DHT22;1537;52.018;8.542;2023-04-24T02:50:33;10.30;99.90
3055;DHT22;1537;52.018;8.542;2023-04-24T02:53:57;10.30;99.90
3055;DHT22;1537;52.018;8.542;2023-04-24T02:57:21;10.20;99.90
3055;DHT22;1537;52.018;8.542;2023-04-24T03:00:45;10.20;99.90
3055;DHT22;1537;52.018;8.542;2023-04-24T03:04:10;10.20;99.90
3055;DHT22;1537;52.018;8.542;2023-04-24T03:07:35;10.20;99.90
3055;DHT22;1537;52.018;8.542;2023-04-24T03:11:00;10.30;99.90
3055;DHT22;1537;52.018;8.542;2023-04-24T03:14:24;10.40;99.90
3055;DHT22;1537;52.018;8.542;2023-04-24T03:17:48;10.40;99.90
3055;DHT22;1537;52.018;8.542;2023-04-24T03:21:12;10.50;99.90
3055;DHT22;1537;52.018;8.542;2023-04-24T03:24:38;10.50;99.90
3055;DHT22;1537;52.018;8.542;2023-04-24T03:28:03;10.60;99.90
3055;DHT22;1537;52.018;8.542;2023-04-24T03:31:37;10.60;99.90
3055;DHT22;1537;52.018;8.542;2023-04-24T03:35:01;10.60;99.90
3055;DHT22;1537;52.018;8.542;2023-04-24T03:38:26;10.70;99.90
3055;DHT22;1537;52.018;8.542;2023-04-24T03:41:56;10.70;99.90
3055;DHT22;1537;52.018;8.542;2023-04-24T03:45:30;10.70;99.90
3055;DHT22;1537;52.018;8.542;2023-04-24T03:48:55;10.70;99.90
3055;DHT22;1537;52.018;8.542;2023-04-24T03:52:26;10.70;99.90
3055;DHT22;1537;52.018;8.542;2023-04-24T03:55:51;10.70;99.90
3055;DHT22;1537;52.018;8.542;2023-04-24T03:59:16;10.70;99.90
3055;DHT22;1537;52.018;8.542;2023-04-24T04:02:45;10.60;99.90
3055;DHT22;1537;52.018;8.542;2023-04-24T04:06:10;10.60;99.90
3055;DHT22;1537;52.018;8.542;2023-04-24T04:09:36;10.60;99.90
3055;DHT22;1537;52.018;8.542;2023-04-24T04:13:00;10.60;99.90
3055;DHT22;1537;52.018;8.542;2023-04-24T04:16:25;10.60;99.90
3055;DHT22;1537;52.018;8.542;2023-04-24T04:19:56;10.60;99.90
3055;DHT22;1537;52.018;8.542;2023-04-24T04:23:20;10.60;99.90
3055;DHT22;1537;52.018;8.542;2023-04-24T04:27:09;10.60;99.90
3055;DHT22;1537;52.018;8.542;2023-04-24T04:30:48;10.60;99.90
3055;DHT22;1537;52.018;8.542;2023-04-24T04:34:14;10.60;99.90
3055;DHT22;1537;52.018;8.542;2023-04-24T04:37:39;10.70;99.90
3055;DHT22;1537;52.018;8.542;2023-04-24T04:41:12;10.70;99.90
3055;DHT22;1537;52.018;8.542;2023-04-24T04:44:37;10.60;99.90
3055;DHT22;1537;52.018;8.542;2023-04-24T04:48:02;10.80;99.90
3055;DHT22;1537;52.018;8.542;2023-04-24T04:51:28;10.90;99.90
3055;DHT22;1537;52.018;8.542;2023-04-24T04:54:56;10.90;99.90
3055;DHT22;1537;52.018;8.542;2023-04-24T04:58:40;10.90;99.90
3055;DHT22;1537;52.018;8.542;2023-04-24T05:02:07;10.60;99.90
3055;DHT22;1537;52.018;8.542;2023-04-24T05:05:32;10.50;99.90
3055;DHT22;1537;52.018;8.542;2023-04-24T05:09:16;10.30;99.90
3055;DHT22;1537;52.018;8.542;2023-04-24T05:12:46;10.30;99.90
3055;DHT22;1537;52.018;8.542;2023-04-24T05:16:11;10.20;99.90
3055;DHT22;1537;52.018;8.542;2023-04-24T05:19:38;10.20;99.90
3055;DHT22;1537;52.018;8.542;2023-04-24T05:23:03;10.20;99.90
3055;DHT22;1537;52.018;8.542;2023-04-24T05:26:29;10.20;99.90
3055;DHT22;1537;52.018;8.542;2023-04-24T05:29:56;10.20;99.90
3055;DHT22;1537;52.018;8.542;2023-04-24T05:33:24;10.30;99.90
3055;DHT22;1537;52.018;8.542;2023-04-24T05:36:49;10.30;99.90
3055;DHT22;1537;52.018;8.542;2023-04-24T05:40:15;10.30;99.90
3055;DHT22;1537;52.018;8.542;2023-04-24T05:43:43;10.40;99.90
3055;DHT22;1537;52.018;8.542;2023-04-24T05:47:11;10.40;99.90
3055;DHT22;1537;52.018;8.542;2023-04-24T05:50:35;10.40;99.90
3055;DHT22;1537;52.018;8.542;2023-04-24T05:54:00;10.40;99.90
3055;DHT22;1537;52.018;8.542;2023-04-24T05:57:25;10.40;99.90
3055;DHT22;1537;52.018;8.542;2023-04-24T06:00:56;10.50;99.90
3055;DHT22;1537;52.018;8.542;2023-04-24T06:04:22;10.50;99.90
3055;DHT22;1537;52.018;8.542;2023-04-24T06:07:48;10.50;99.90
3055;DHT22;1537;52.018;8.542;2023-04-24T06:11:13;10.60;99.90
3055;DHT22;1537;52.018;8.542;2023-04-24T06:14:39;10.50;99.90
3055;DHT22;1537;52.018;8.542;2023-04-24T06:18:15;10.40;99.90
3055;DHT22;1537;52.018;8.542;2023-04-24T06:21:42;10.30;99.90
3055;DHT22;1537;52.018;8.542;2023-04-24T06:25:07;10.30;99.90
3055;DHT22;1537;52.018;8.542;2023-04-24T06:28:31;10.30;99.90
3055;DHT22;1537;52.018;8.542;2023-04-24T06:31:54;10.30;99.90
3055;DHT22;1537;52.018;8.542;2023-04-24T06:35:19;10.50;99.90
3055;DHT22;1537;52.018;8.542;2023-04-24T06:38:43;10.40;99.90
3055;DHT22;1537;52.018;8.542;2023-04-24T06:42:07;10.50;99.90
3055;DHT22;1537;52.018;8.542;2023-04-24T06:45:31;10.40;99.90
3055;DHT22;1537;52.018;8.542;2023-04-24T06:48:55;10.40;99.90
3055;DHT22;1537;52.018;8.542;2023-04-24T06:52:20;10.40;99.90
3055;DHT22;1537;52.018;8.542;2023-04-24T06:55:44;10.30;99.90
3055;DHT22;1537;52.018;8.542;2023-04-24T06:59:08;10.40;99.90
3055;DHT22;1537;52.018;8.542;2023-04-24T07:02:32;10.30;99.90
3055;DHT22;1537;52.018;8.542;2023-04-24T07:05:56;10.40;99.90
3055;DHT22;1537;52.018;8.542;2023-04-24T07:09:21;10.40;99.90
3055;DHT22;1537;52.018;8.542;2023-04-24T07:12:46;10.40;99.90
3055;DHT22;1537;52.018;8.542;2023-04-24T07:16:09;10.30;99.90
3055;DHT22;1537;52.018;8.542;2023-04-24T07:19:34;10.50;99.90
3055;DHT22;1537;52.018;8.542;2023-04-24T07:22:57;10.40;99.90
3055;DHT22;1537;52.018;8.542;2023-04-24T07:26:22;10.40;99.90
3055;DHT22;1537;52.018;8.542;2023-04-24T07:29:46;10.60;99.90
3055;DHT22;1537;52.018;8.542;2023-04-24T07:33:10;10.60;99.90
3055;DHT22;1537;52.018;8.542;2023-04-24T07:36:36;10.60;99.90
3055;DHT22;1537;52.018;8.542;2023-04-24T07:40:00;10.80;99.90
3055;DHT22;1537;52.018;8.542;2023-04-24T07:43:27;10.70;99.90
3055;DHT22;1537;52.018;8.542;2023-04-24T07:46:50;10.80;99.90
3055;DHT22;1537;52.018;8.542;2023-04-24T07:50:14;10.90;99.90
3055;DHT22;1537;52.018;8.542;2023-04-24T07:53:38;10.80;99.90
3055;DHT22;1537;52.018;8.542;2023-04-24T07:57:02;10.80;99.90
3055;DHT22;1537;52.018;8.542;2023-04-24T08:00:28;10.90;99.90
3055;DHT22;1537;52.018;8.542;2023-04-24T08:03:51;10.90;99.90
3055;DHT22;1537;52.018;8.542;2023-04-24T08:07:16;10.90;99.90
3055;DHT22;1537;52.018;8.542;2023-04-24T08:10:39;10.90;99.90
3055;DHT22;1537;52.018;8.542;2023-04-24T08:14:03;10.80;99.90
3055;DHT22;1537;52.018;8.542;2023-04-24T08:17:28;10.90;99.90
3055;DHT22;1537;52.018;8.542;2023-04-24T08:20:53;10.70;99.90
3055;DHT22;1537;52.018;8.542;2023-04-24T08:24:17;10.80;99.90
3055;DHT22;1537;52.018;8.542;2023-04-24T08:27:40;10.70;99.90
3055;DHT22;1537;52.018;8.542;2023-04-24T08:31:05;10.80;99.90
3055;DHT22;1537;52.018;8.542;2023-04-24T08:34:30;11.10;99.90
3055;DHT22;1537;52.018;8.542;2023-04-24T08:37:53;12.80;99.90
3055;DHT22;1537;52.018;8.542;2023-04-24T08:41:18;13.80;99.90
3055;DHT22;1537;52.018;8.542;2023-04-24T08:44:42;13.80;99.70
3055;DHT22;1537;52.018;8.542;2023-04-24T08:48:07;13.90;99.30
3055;DHT22;1537;52.018;8.542;2023-04-24T08:51:46;13.50;99.50
3055;DHT22;1537;52.018;8.542;2023-04-24T08:55:10;12.70;99.90
3055;DHT22;1537;52.018;8.542;2023-04-24T08:58:35;12.40;99.90
3055;DHT22;1537;52.018;8.542;2023-04-24T09:01:59;12.10;99.90
3055;DHT22;1537;52.018;8.542;2023-04-24T09:05:23;11.80;99.90
3055;DHT22;1537;52.018;8.542;2023-04-24T09:08:53;11.60;99.90
3055;DHT22;1537;52.018;8.542;2023-04-24T09:12:18;11.40;99.90
3055;DHT22;1537;52.018;8.542;2023-04-24T09:15:42;11.40;99.90
3055;DHT22;1537;52.018;8.542;2023-04-24T09:19:06;11.40;99.90
3055;DHT22;1537;52.018;8.542;2023-04-24T09:22:30;11.30;99.90
3055;DHT22;1537;52.018;8.542;2023-04-24T09:25:56;11.30;99.90
3055;DHT22;1537;52.018;8.542;2023-04-24T09:29:20;11.20;99.90
3055;DHT22;1537;52.018;8.542;2023-04-24T09:32:44;11.30;99.90
3055;DHT22;1537;52.018;8.542;2023-04-24T09:36:08;11.00;99.90
3055;DHT22;1537;52.018;8.542;2023-04-24T09:39:32;11.00;99.90
3055;DHT22;1537;52.018;8.542;2023-04-24T09:42:57;11.20;99.90
3055;DHT22;1537;52.018;8.542;2023-04-24T09:46:30;11.10;99.90
3055;DHT22;1537;52.018;8.542;2023-04-24T09:49:58;11.10;99.90
3055;DHT22;1537;52.018;8.542;2023-04-24T09:53:24;11.20;99.90
3055;DHT22;1537;52.018;8.542;2023-04-24T09:56:49;11.30;99.90
3055;DHT22;1537;52.018;8.542;2023-04-24T10:00:18;11.20;99.90
3055;DHT22;1537;52.018;8.542;2023-04-24T10:03:43;11.10;99.90
3055;DHT22;1537;52.018;8.542;2023-04-24T10:07:08;11.10;99.90
3055;DHT22;1537;52.018;8.542;2023-04-24T10:10:33;11.00;99.90
3055;DHT22;1537;52.018;8.542;2023-04-24T10:13:57;10.80;99.90
3055;DHT22;1537;52.018;8.542;2023-04-24T10:17:24;10.80;99.90
3055;DHT22;1537;52.018;8.542;2023-04-24T10:20:48;10.80;99.90
3055;DHT22;1537;52.018;8.542;2023-04-24T10:24:12;10.70;99.90
3055;DHT22;1537;52.018;8.542;2023-04-24T10:27:38;10.80;99.90
3055;DHT22;1537;52.018;8.542;2023-04-24T10:31:02;10.90;99.90
3055;DHT22;1537;52.018;8.542;2023-04-24T10:34:28;10.80;99.90
3055;DHT22;1537;52.018;8.542;2023-04-24T10:37:57;10.90;99.90
3055;DHT22;1537;52.018;8.542;2023-04-24T10:41:21;10.90;99.90
3055;DHT22;1537;52.018;8.542;2023-04-24T10:44:48;11.00;99.90
3055;DHT22;1537;52.018;8.542;2023-04-24T10:48:15;10.90;99.90
3055;DHT22;1537;52.018;8.542;2023-04-24T10:51:47;10.90;99.90
3055;DHT22;1537;52.018;8.542;2023-04-24T10:55:12;10.60;99.90
3055;DHT22;1537;52.018;8.542;2023-04-24T10:58:38;10.60;99.90
3055;DHT22;1537;52.018;8.542;2023-04-24T11:02:02;10.50;99.90
3055;DHT22;1537;52.018;8.542;2023-04-24T11:05:50;10.60;99.90
3055;DHT22;1537;52.018;8.542;2023-04-24T11:09:15;10.50;99.90
3055;DHT22;1537;52.018;8.542;2023-04-24T11:12:40;10.30;99.90
3055;DHT22;1537;52.018;8.542;2023-04-24T11:16:12;10.20;99.90
3055;DHT22;1537;52.018;8.542;2023-04-24T11:19:39;10.20;99.90
3055;DHT22;1537;52.018;8.542;2023-04-24T11:23:04;10.00;99.90
3055;DHT22;1537;52.018;8.542;2023-04-24T11:26:37;9.80;99.90
3055;DHT22;1537;52.018;8.542;2023-04-24T11:30:03;9.60;99.90
3055;DHT22;1537;52.018;8.542;2023-04-24T11:33:31;9.70;99.90
3055;DHT22;1537;52.018;8.542;2023-04-24T11:36:55;10.10;99.90
3055;DHT22;1537;52.018;8.542;2023-04-24T11:40:21;10.20;99.90
3055;DHT22;1537;52.018;8.542;2023-04-24T11:43:48;10.30;99.90
3055;DHT22;1537;52.018;8.542;2023-04-24T11:47:12;10.10;99.90
3055;DHT22;1537;52.018;8.542;2023-04-24T11:50:36;10.00;99.90
3055;DHT22;1537;52.018;8.542;2023-04-24T11:54:00;9.80;99.90
3055;DHT22;1537;52.018;8.542;2023-04-24T11:57:26;9.70;99.90
3055;DHT22;1537;52.018;8.542;2023-04-24T12:00:57;9.80;99.90
3055;DHT22;1537;52.018;8.542;2023-04-24T12:04:25;10.10;99.90
3055;DHT22;1537;52.018;8.542;2023-04-24T12:07:50;10.20;99.90
3055;DHT22;1537;52.018;8.542;2023-04-24T12:11:16;10.10;99.90
3055;DHT22;1537;52.018;8.542;2023-04-24T12:14:49;10.10;99.90
3055;DHT22;1537;52.018;8.542;2023-04-24T12:18:17;10.20;99.90
3055;DHT22;1537;52.018;8.542;2023-04-24T12:22:02;9.80;99.90
3055;DHT22;1537;52.018;8.542;2023-04-24T12:25:28;9.40;99.90
3055;DHT22;1537;52.018;8.542;2023-04-24T12:29:01;9.40;99.90
3055;DHT22;1537;52.018;8.542;2023-04-24T12:32:30;9.50;99.90
3055;DHT22;1537;52.018;8.542;2023-04-24T12:35:58;9.50;99.90
3055;DHT22;1537;52.018;8.542;2023-04-24T12:39:24;9.50;99.90
3055;DHT22;1537;52.018;8.542;2023-04-24T12:42:51;9.50;99.90
3055;DHT22;1537;52.018;8.542;2023-04-24T12:46:21;9.60;99.90
3055;DHT22;1537;52.018;8.542;2023-04-24T12:49:49;9.60;99.90
3055;DHT22;1537;52.018;8.542;2023-04-24T12:53:19;9.70;99.90
3055;DHT22;1537;52.018;8.542;2023-04-24T12:56:50;9.70;99.90
3055;DHT22;1537;52.018;8.542;2023-04-24T13:00:16;9.70;99.90
3055;DHT22;1537;52.018;8.542;2023-04-24T13:03:44;9.60;99.90
3055;DHT22;1537;52.018;8.542;2023-04-24T13:07:09;10.10;99.90
3055;DHT22;1537;52.018;8.542;2023-04-24T13:10:36;9.50;99.90
3055;DHT22;1537;52.018;8.542;2023-04-24T13:14:00;9.50;99.90
3055;DHT22;1537;52.018;8.542;2023-04-24T13:17:23;9.60;99.90
3055;DHT22;1537;52.018;8.542;2023-04-24T13:20:47;9.60;99.90
3055;DHT22;1537;52.018;8.542;2023-04-24T13:24:11;9.70;99.90
3055;DHT22;1537;52.018;8.542;2023-04-24T13:27:38;9.80;99.90
3055;DHT22;1537;52.018;8.542;2023-04-24T13:31:03;9.70;99.90
3055;DHT22;1537;52.018;8.542;2023-04-24T13:34:29;9.60;99.90
3055;DHT22;1537;52.018;8.542;2023-04-24T13:37:52;9.40;99.90
3055;DHT22;1537;52.018;8.542;2023-04-24T13:41:16;9.30;99.90
3055;DHT22;1537;52.018;8.542;2023-04-24T13:44:41;9.30;99.90
3055;DHT22;1537;52.018;8.542;2023-04-24T13:48:05;9.20;99.90
3055;DHT22;1537;52.018;8.542;2023-04-24T13:51:29;9.30;99.90
3055;DHT22;1537;52.018;8.542;2023-04-24T13:54:53;9.50;99.90
3055;DHT22;1537;52.018;8.542;2023-04-24T13:58:17;9.40;99.90
3055;DHT22;1537;52.018;8.542;2023-04-24T14:01:43;9.40;99.90
3055;DHT22;1537;52.018;8.542;2023-04-24T14:05:10;9.40;99.90
3055;DHT22;1537;52.018;8.542;2023-04-24T14:08:34;9.50;99.90
3055;DHT22;1537;52.018;8.542;2023-04-24T14:11:58;9.60;99.90
3055;DHT22;1537;52.018;8.542;2023-04-24T14:15:23;9.50;99.90
3055;DHT22;1537;52.018;8.542;2023-04-24T14:18:48;9.60;99.90
3055;DHT22;1537;52.018;8.542;2023-04-24T14:22:12;10.10;99.90
3055;DHT22;1537;52.018;8.542;2023-04-24T14:25:36;9.80;99.90
3055;DHT22;1537;52.018;8.542;2023-04-24T14:29:00;9.80;99.90
3055;DHT22;1537;52.018;8.542;2023-04-24T14:32:26;10.00;99.90
3055;DHT22;1537;52.018;8.542;2023-04-24T14:35:51;10.40;99.90
3055;DHT22;1537;52.018;8.542;2023-04-24T14:39:15;10.20;99.90
3055;DHT22;1537;52.018;8.542;2023-04-24T14:42:39;10.20;99.90
3055;DHT22;1537;52.018;8.542;2023-04-24T14:46:04;10.20;99.90
3055;DHT22;1537;52.018;8.542;2023-04-24T14:49:28;10.20;99.90
3055;DHT22;1537;52.018;8.542;2023-04-24T14:52:53;10.20;99.90
3055;DHT22;1537;52.018;8.542;2023-04-24T14:56:19;10.30;99.90
3055;DHT22;1537;52.018;8.542;2023-04-24T14:59:43;10.20;99.90
3055;DHT22;1537;52.018;8.542;2023-04-24T15:03:07;10.00;99.90
3055;DHT22;1537;52.018;8.542;2023-04-24T15:06:31;10.00;99.90
3055;DHT22;1537;52.018;8.542;2023-04-24T15:09:56;9.60;99.90
3055;DHT22;1537;52.018;8.542;2023-04-24T15:13:20;9.50;99.90
3055;DHT22;1537;52.018;8.542;2023-04-24T15:16:44;9.60;99.90
3055;DHT22;1537;52.018;8.542;2023-04-24T15:20:09;9.70;99.90
3055;DHT22;1537;52.018;8.542;2023-04-24T15:23:33;9.90;99.90
3055;DHT22;1537;52.018;8.542;2023-04-24T15:26:58;10.00;99.90
3055;DHT22;1537;52.018;8.542;2023-04-24T15:30:23;9.90;99.90
3055;DHT22;1537;52.018;8.542;2023-04-24T15:33:47;10.00;99.90
3055;DHT22;1537;52.018;8.542;2023-04-24T15:37:12;10.00;99.90
3055;DHT22;1537;52.018;8.542;2023-04-24T15:40:36;9.90;99.90
3055;DHT22;1537;52.018;8.542;2023-04-24T15:44:01;10.10;99.90
3055;DHT22;1537;52.018;8.542;2023-04-24T15:47:25;9.70;99.90
3055;DHT22;1537;52.018;8.542;2023-04-24T15:50:49;9.80;99.90
3055;DHT22;1537;52.018;8.542;2023-04-24T15:54:13;9.90;99.90
3055;DHT22;1537;52.018;8.542;2023-04-24T15:57:36;9.90;99.90
3055;DHT22;1537;52.018;8.542;2023-04-24T16:01:02;10.00;99.90
3055;DHT22;1537;52.018;8.542;2023-04-24T16:04:27;9.80;99.90
3055;DHT22;1537;52.018;8.542;2023-04-24T16:07:51;9.80;99.90
3055;DHT22;1537;52.018;8.542;2023-04-24T16:11:15;9.80;99.90
3055;DHT22;1537;52.018;8.542;2023-04-24T16:14:39;11.10;99.90
3055;DHT22;1537;52.018;8.542;2023-04-24T16:18:04;9.60;99.90
3055;DHT22;1537;52.018;8.542;2023-04-24T16:21:28;9.40;99.90
3055;DHT22;1537;52.018;8.542;2023-04-24T16:24:52;9.60;99.90
3055;DHT22;1537;52.018;8.542;2023-04-24T16:28:16;9.20;99.90
3055;DHT22;1537;52.018;8.542;2023-04-24T16:31:40;9.30;99.90
3055;DHT22;1537;52.018;8.542;2023-04-24T16:35:05;9.20;99.90
3055;DHT22;1537;52.018;8.542;2023-04-24T16:38:29;9.20;99.90
3055;DHT22;1537;52.018;8.542;2023-04-24T16:41:52;9.10;99.90
3055;DHT22;1537;52.018;8.542;2023-04-24T16:45:19;9.30;99.90
3055;DHT22;1537;52.018;8.542;2023-04-24T16:48:43;9.50;99.90
3055;DHT22;1537;52.018;8.542;2023-04-24T16:52:09;10.40;99.90
3055;DHT22;1537;52.018;8.542;2023-04-24T16:55:33;9.40;99.90
3055;DHT22;1537;52.018;8.542;2023-04-24T16:58:57;10.30;99.90
3055;DHT22;1537;52.018;8.542;2023-04-24T17:02:21;8.80;99.90
3055;DHT22;1537;52.018;8.542;2023-04-24T17:05:45;8.60;99.90
3055;DHT22;1537;52.018;8.542;2023-04-24T17:09:10;8.50;99.90
3055;DHT22;1537;52.018;8.542;2023-04-24T17:12:34;8.60;99.90
3055;DHT22;1537;52.018;8.542;2023-04-24T17:15:58;8.50;99.90
3055;DHT22;1537;52.018;8.542;2023-04-24T17:19:22;8.70;99.90
3055;DHT22;1537;52.018;8.542;2023-04-24T17:22:47;8.70;99.90
3055;DHT22;1537;52.018;8.542;2023-04-24T17:26:12;8.80;99.90
3055;DHT22;1537;52.018;8.542;2023-04-24T17:29:35;8.80;99.90
3055;DHT22;1537;52.018;8.542;2023-04-24T17:32:59;8.80;99.90
3055;DHT22;1537;52.018;8.542;2023-04-24T17:36:23;8.70;99.90
3055;DHT22;1537;52.018;8.542;2023-04-24T17:39:46;8.70;99.90
3055;DHT22;1537;52.018;8.542;2023-04-24T17:43:12;8.70;99.90
3055;DHT22;1537;52.018;8.542;2023-04-24T17:46:39;8.80;99.90
3055;DHT22;1537;52.018;8.542;2023-04-24T17:50:04;8.80;99.90
3055;DHT22;1537;52.018;8.542;2023-04-24T17:53:28;8.80;99.90
3055;DHT22;1537;52.018;8.542;2023-04-24T17:56:52;8.80;99.90
3055;DHT22;1537;52.018;8.542;2023-04-24T18:00:18;8.70;99.90
3055;DHT22;1537;52.018;8.542;2023-04-24T18:03:41;8.70;99.90
3055;DHT22;1537;52.018;8.542;2023-04-24T18:07:06;8.70;99.90
3055;DHT22;1537;52.018;8.542;2023-04-24T18:10:31;8.80;99.90
3055;DHT22;1537;52.018;8.542;2023-04-24T18:13:56;8.80;99.90
3055;DHT22;1537;52.018;8.542;2023-04-24T18:17:21;8.80;99.90
3055;DHT22;1537;52.018;8.542;2023-04-24T18:20:45;8.80;99.90
3055;DHT22;1537;52.018;8.542;2023-04-24T18:24:09;8.80;99.90
3055;DHT22;1537;52.018;8.542;2023-04-24T18:27:33;8.80;99.90
3055;DHT22;1537;52.018;8.542;2023-04-24T18:30:56;8.70;99.90
3055;DHT22;1537;52.018;8.542;2023-04-24T18:34:22;8.70;99.90
3055;DHT22;1537;52.018;8.542;2023-04-24T18:37:47;8.60;99.90
3055;DHT22;1537;52.018;8.542;2023-04-24T18:41:11;8.50;99.90
3055;DHT22;1537;52.018;8.542;2023-04-24T18:44:35;8.50;99.90
3055;DHT22;1537;52.018;8.542;2023-04-24T18:48:02;8.50;99.90
3055;DHT22;1537;52.018;8.542;2023-04-24T18:51:27;8.60;99.90
3055;DHT22;1537;52.018;8.542;2023-04-24T18:54:52;8.60;99.90
3055;DHT22;1537;52.018;8.542;2023-04-24T18:58:15;8.70;99.90
3055;DHT22;1537;52.018;8.542;2023-04-24T19:01:39;8.80;99.90
3055;DHT22;1537;52.018;8.542;2023-04-24T19:05:03;8.80;99.90
3055;DHT22;1537;52.018;8.542;2023-04-24T19:08:28;8.80;99.90
3055;DHT22;1537;52.018;8.542;2023-04-24T19:11:52;8.80;99.90
3055;DHT22;1537;52.018;8.542;2023-04-24T19:15:16;8.80;99.90
3055;DHT22;1537;52.018;8.542;2023-04-24T19:18:40;8.70;99.90
3055;DHT22;1537;52.018;8.542;2023-04-24T19:22:05;8.70;99.90
3055;DHT22;1537;52.018;8.542;2023-04-24T19:25:31;8.70;99.90
3055;DHT22;1537;52.018;8.542;2023-04-24T19:28:55;8.70;99.90
3055;DHT22;1537;52.018;8.542;2023-04-24T19:32:20;8.60;99.90
3055;DHT22;1537;52.018;8.542;2023-04-24T19:35:44;8.50;99.90
3055;DHT22;1537;52.018;8.542;2023-04-24T19:39:09;8.40;99.90
3055;DHT22;1537;52.018;8.542;2023-04-24T19:42:41;8.40;99.90
3055;DHT22;1537;52.018;8.542;2023-04-24T19:46:08;8.30;99.90
3055;DHT22;1537;52.018;8.542;2023-04-24T19:49:38;8.30;99.90
3055;DHT22;1537;52.018;8.542;2023-04-24T19:53:04;8.30;99.90
3055;DHT22;1537;52.018;8.542;2023-04-24T19:56:36;8.20;99.90
3055;DHT22;1537;52.018;8.542;2023-04-24T20:00:02;8.30;99.90
3055;DHT22;1537;52.018;8.542;2023-04-24T20:03:26;8.40;99.90
3055;DHT22;1537;52.018;8.542;2023-04-24T20:06:56;8.40;99.90
3055;DHT22;1537;52.018;8.542;2023-04-24T20:10:19;8.40;99.90
3055;DHT22;1537;52.018;8.542;2023-04-24T20:13:45;8.40;99.90
3055;DHT22;1537;52.018;8.542;2023-04-24T20:17:20;8.40;99.90
3055;DHT22;1537;52.018;8.542;2023-04-24T20:20:44;8.30;99.90
3055;DHT22;1537;52.018;8.542;2023-04-24T20:24:08;8.20;99.90
3055;DHT22;1537;52.018;8.542;2023-04-24T20:27:32;8.10;99.90
3055;DHT22;1537;52.018;8.542;2023-04-24T20:30:56;8.10;99.90
3055;DHT22;1537;52.018;8.542;2023-04-24T20:34:21;8.10;99.90
3055;DHT22;1537;52.018;8.542;2023-04-24T20:37:45;8.10;99.90
3055;DHT22;1537;52.018;8.542;2023-04-24T20:41:09;8.10;99.90
3055;DHT22;1537;52.018;8.542;2023-04-24T20:44:33;8.10;99.90
3055;DHT22;1537;52.018;8.542;2023-04-24T20:47:57;8.10;99.90
3055;DHT22;1537;52.018;8.542;2023-04-24T20:51:22;8.00;99.90
3055;DHT22;1537;52.018;8.542;2023-04-24T20:54:46;7.90;99.90
3055;DHT22;1537;52.018;8.542;2023-04-24T20:58:10;7.80;99.90
3055;DHT22;1537;52.018;8.542;2023-04-24T21:01:34;7.80;99.90
3055;DHT22;1537;52.018;8.542;2023-04-24T21:04:57;7.80;99.90
3055;DHT22;1537;52.018;8.542;2023-04-24T21:08:23;7.80;99.90
3055;DHT22;1537;52.018;8.542;2023-04-24T21:11:46;7.70;99.90
3055;DHT22;1537;52.018;8.542;2023-04-24T21:15:10;7.60;99.90
3055;DHT22;1537;52.018;8.542;2023-04-24T21:18:34;7.60;99.90
3055;DHT22;1537;52.018;8.542;2023-04-24T21:22:02;7.50;99.90
3055;DHT22;1537;52.018;8.542;2023-04-24T21:25:27;7.50;99.90
3055;DHT22;1537;52.018;8.542;2023-04-24T21:28:54;7.40;99.90
3055;DHT22;1537;52.018;8.542;2023-04-24T21:32:18;7.40;99.90
3055;DHT22;1537;52.018;8.542;2023-04-24T21:35:42;7.30;99.90
3055;DHT22;1537;52.018;8.542;2023-04-24T21:39:06;7.30;99.90
3055;DHT22;1537;52.018;8.542;2023-04-24T21:42:31;7.20;99.90
3055;DHT22;1537;52.018;8.542;2023-04-24T21:45:55;7.20;99.90
3055;DHT22;1537;52.018;8.542;2023-04-24T21:49:19;7.20;99.90
3055;DHT22;1537;52.018;8.542;2023-04-24T21:52:42;7.10;99.90
3055;DHT22;1537;52.018;8.542;2023-04-24T21:56:06;7.10;99.90
3055;DHT22;1537;52.018;8.542;2023-04-24T21:59:33;7.10;99.90
3055;DHT22;1537;52.018;8.542;2023-04-24T22:02:57;7.00;99.90
3055;DHT22;1537;52.018;8.542;2023-04-24T22:06:20;7.00;99.90
3055;DHT22;1537;52.018;8.542;2023-04-24T22:09:44;7.00;99.90
3055;DHT22;1537;52.018;8.542;2023-04-24T22:13:08;7.00;99.90
3055;DHT22;1537;52.018;8.542;2023-04-24T22:16:33;7.00;99.90
3055;DHT22;1537;52.018;8.542;2023-04-24T22:19:57;7.00;99.90
3055;DHT22;1537;52.018;8.542;2023-04-24T22:23:20;6.90;99.90
3055;DHT22;1537;52.018;8.542;2023-04-24T22:26:44;6.90;99.90
3055;DHT22;1537;52.018;8.542;2023-04-24T22:30:09;6.90;99.90
3055;DHT22;1537;52.018;8.542;2023-04-24T22:33:34;6.90;99.90